デリー の空港の天気 - METARとTAF

インディラ・ガンディー国際空港 ( VIDP / DEL ) - インド デリー
飛行場実況気象(Metar)
観測時間06/18 13:00 IST (06/18 07:30 UTC)
風向・風速北西 4m/s 瞬間風速9m/s
視程4000m
天気現象煙霧
少しの雲 雲底高度 1220m
全天の4割程度の雲 雲底高度 3050m
気温36℃
湿度39%
気圧1002hPa
METARVIDP 180730Z 32008G18KT 4000 HZ FEW040 SCT100 36/20 Q1002 NOSIG
過去の天気等 Google飛行場航空写真 Wunderground天気予報

過去48時間のMETAR

飛行場予報(TAF)
発表時間: 6/18 10:30 IST (6/18 05:00 UTC)
予報対象時間: 18日11時 IST ~ 19日17時 IST
風向・風速西北西 5m/s
視程3000m
天気現象煙霧
全天の4割程度の雲 雲底高度 1220m
全天の8割程度の雲 雲底高度 3050m
18日14時 IST ~ 18日20時 IST に一時的に
風向・風速北西 5m/s 瞬間風速 13m/s
視程1500m
天気現象塵嵐 雷雨
全天の4割程度の雲 雲底高度 910m
少しの積乱雲 雲底高度 1070m
全天を覆う雲 雲底高度 2440m
18日21時 IST ~ 18日23時 IST に徐々に
風向・風速北 3m/s
視程2500m
天気現象煙霧
全天の4割程度の雲 雲底高度 1220m
全天の8割程度の雲 雲底高度 3050m
19日2時 IST ~ 19日8時 IST に一時的に
風向・風速西北西 5m/s 瞬間風速 10m/s
視程1500m
天気現象雷雨
全天の4割程度の雲 雲底高度 910m
少しの積乱雲 雲底高度 1070m
全天を覆う雲 雲底高度 2440m
19日11時 IST ~ 19日13時 IST に徐々に
風向・風速南西 3m/s
視程3000m
天気現象煙霧
少しの雲 雲底高度 1220m
全天の4割程度の雲 雲底高度 3050m
TAF VIDP 180500Z 1806/1912 29010KT 3000 HZ SCT040 BKN100
TEMPO 1809/1815 32010G25KT 1500 DS TSRA SCT030 FEW035CB OVC080
BECMG 1816/1818 01005KT 2500 HZ SCT040 BKN100
TEMPO 1821/1903 29010G20KT 1500 TSRA SCT030 FEW035CB OVC080
BECMG 1906/1908 23005KT 3000 HZ FEW040 SCT100